Time;durP1;ratioP1;P1;durP2;ratioP2;P2;SDS_P1;SDS_P2;PMS_P1;PMS_P2;Temp;Humidity;BMP_temperature;BMP_pressure;BME280_temperature;BME280_humidity;BME280_pressure;Samples;Min_cycle;Max_cycle;Signal;HPM_P1;HPM_P2
2023/01/15 00:01:51;;;;;;;0.60;0.60;;;7.40;99.90;;;;;;5002990;27;20046;-87
2023/01/15 00:04:17;;;;;;;0.70;0.70;;;7.40;99.90;;;;;;5035271;27;20046;-88
2023/01/15 00:06:43;;;;;;;0.60;0.60;;;7.40;99.90;;;;;;5027143;27;20046;-89
2023/01/15 00:09:14;;;;;;;0.60;0.60;;;7.50;99.90;;;;;;5032094;27;20057;-87
2023/01/15 00:11:40;;;;;;;0.63;0.63;;;7.50;99.90;;;;;;5034535;27;20161;-88
2023/01/15 00:14:06;;;;;;;0.60;0.60;;;7.50;99.90;;;;;;5048091;27;20090;-85
2023/01/15 00:16:31;;;;;;;0.60;0.60;;;7.50;99.90;;;;;;5051132;27;20137;-88
2023/01/15 00:18:59;;;;;;;0.60;0.60;;;7.50;99.90;;;;;;5046646;27;20057;-91
2023/01/15 00:21:26;;;;;;;0.70;0.70;;;7.40;99.90;;;;;;5034493;27;20043;-88
2023/01/15 00:29:23;;;;;;;0.60;0.60;;;7.50;99.90;;;;;;5038308;27;20043;-89
2023/01/15 00:31:58;;;;;;;0.60;0.60;;;7.50;99.90;;;;;;5031627;27;20575;-88
2023/01/15 00:34:28;;;;;;;0.60;0.60;;;7.50;99.90;;;;;;5040806;27;20123;-88
2023/01/15 00:36:54;;;;;;;0.60;0.60;;;7.40;99.90;;;;;;5037077;27;20468;-90
2023/01/15 00:39:20;;;;;;;0.60;0.60;;;7.40;99.90;;;;;;5000747;27;20072;-87
2023/01/15 00:41:46;;;;;;;0.60;0.60;;;7.50;99.90;;;;;;5030645;27;20043;-88
2023/01/15 00:44:14;;;;;;;0.60;0.60;;;7.40;99.90;;;;;;5042568;27;20131;-89
2023/01/15 00:46:40;;;;;;;0.70;0.70;;;7.40;99.90;;;;;;5015439;27;20535;-88
2023/01/15 00:49:07;;;;;;;0.60;0.60;;;7.30;99.90;;;;;;5033478;27;20043;-88
2023/01/15 00:51:33;;;;;;;0.65;0.65;;;7.40;99.90;;;;;;5030074;27;20049;-90
2023/01/15 00:53:58;;;;;;;0.60;0.60;;;7.40;99.90;;;;;;5042952;27;20415;-88
2023/01/15 00:56:27;;;;;;;0.60;0.60;;;7.30;99.90;;;;;;5033208;27;20078;-90
2023/01/15 00:58:53;;;;;;;0.60;0.60;;;7.30;99.90;;;;;;5048059;27;20062;-88
2023/01/15 01:01:19;;;;;;;0.60;0.60;;;7.40;99.90;;;;;;4988508;27;20043;-88
2023/01/15 01:03:51;;;;;;;0.60;0.60;;;7.30;99.90;;;;;;5031425;27;20046;-90
2023/01/15 01:06:18;;;;;;;0.60;0.60;;;7.40;99.90;;;;;;5035881;27;20062;-90
2023/01/15 01:08:44;;;;;;;0.60;0.60;;;7.40;99.90;;;;;;5026965;27;20082;-88
2023/01/15 01:11:15;;;;;;;0.60;0.60;;;7.40;99.90;;;;;;5014218;27;20464;-88
2023/01/15 01:13:41;;;;;;;0.60;0.60;;;7.40;99.90;;;;;;5028119;27;20046;-89
2023/01/15 01:16:37;;;;;;;0.60;0.60;;;7.40;99.90;;;;;;5044728;27;20050;-89
2023/01/15 01:19:07;;;;;;;0.60;0.60;;;7.30;99.90;;;;;;5033662;27;20050;-88
2023/01/15 01:21:34;;;;;;;0.60;0.60;;;7.40;99.90;;;;;;5037745;27;20122;-89
2023/01/15 01:24:03;;;;;;;0.60;0.60;;;7.40;99.90;;;;;;5029304;27;22156;-87
2023/01/15 01:26:32;;;;;;;0.60;0.60;;;7.30;99.90;;;;;;5046534;27;20165;-87
2023/01/15 01:28:57;;;;;;;0.60;0.60;;;7.30;99.90;;;;;;5045235;27;20057;-88
2023/01/15 01:31:23;;;;;;;0.60;0.60;;;7.30;99.90;;;;;;5021213;27;20042;-88
2023/01/15 01:33:51;;;;;;;0.60;0.60;;;7.30;99.90;;;;;;5048222;27;20042;-89
2023/01/15 01:36:18;;;;;;;0.60;0.60;;;7.30;99.90;;;;;;5023456;27;20508;-89
2023/01/15 01:38:48;;;;;;;0.60;0.60;;;7.30;99.90;;;;;;5029207;27;20046;-89
2023/01/15 01:41:19;;;;;;;0.60;0.60;;;7.30;99.90;;;;;;5037584;27;20043;-86
2023/01/15 01:44:01;;;;;;;0.60;0.60;;;7.30;99.90;;;;;;5025400;27;20594;-88
2023/01/15 01:46:29;;;;;;;0.60;0.60;;;7.30;99.90;;;;;;5019833;27;20114;-89
2023/01/15 01:49:00;;;;;;;0.60;0.60;;;7.30;99.90;;;;;;5044443;27;20501;-87
2023/01/15 01:51:31;;;;;;;0.60;0.60;;;7.20;99.90;;;;;;5025489;27;20504;-88
2023/01/15 01:53:59;;;;;;;0.60;0.60;;;7.30;99.90;;;;;;5049620;27;20405;-88
2023/01/15 01:56:25;;;;;;;0.60;0.60;;;7.30;99.90;;;;;;5028100;27;20137;-89
2023/01/15 01:58:53;;;;;;;0.60;0.60;;;7.30;99.90;;;;;;5026014;27;20051;-87
2023/01/15 02:01:21;;;;;;;0.60;0.60;;;7.30;99.90;;;;;;5054954;27;20051;-87
2023/01/15 02:03:48;;;;;;;0.60;0.60;;;7.30;99.90;;;;;;5030822;27;20466;-87
2023/01/15 02:06:15;;;;;;;0.60;0.60;;;7.20;99.90;;;;;;5012286;27;20046;-87
2023/01/15 02:08:41;;;;;;;0.60;0.60;;;7.20;99.90;;;;;;5001097;27;20051;-89
2023/01/15 02:11:14;;;;;;;0.60;0.60;;;7.20;99.90;;;;;;5038839;27;20062;-86
2023/01/15 02:13:49;;;;;;;0.60;0.60;;;7.30;99.90;;;;;;5025871;27;21009;-86
2023/01/15 02:16:32;;;;;;;0.60;0.60;;;7.20;99.90;;;;;;5048641;27;20062;-87
2023/01/15 02:19:13;;;;;;;0.70;0.70;;;7.20;99.90;;;;;;5023804;27;20053;-87
2023/01/15 02:21:47;;;;;;;0.60;0.60;;;7.20;99.90;;;;;;5045023;27;20047;-86
2023/01/15 02:24:22;;;;;;;0.60;0.60;;;7.20;99.90;;;;;;5043655;27;20121;-87
2023/01/15 02:27:19;;;;;;;0.60;0.60;;;7.20;99.90;;;;;;5031616;27;20047;-88
2023/01/15 02:30:01;;;;;;;0.60;0.60;;;7.20;99.90;;;;;;5036864;27;20555;-88
2023/01/15 02:32:52;;;;;;;0.60;0.60;;;7.10;99.90;;;;;;5062818;27;20093;-88
2023/01/15 02:35:27;;;;;;;0.60;0.60;;;7.10;99.90;;;;;;5051946;27;20159;-87
2023/01/15 02:37:57;;;;;;;0.60;0.60;;;7.10;99.90;;;;;;5040141;27;22580;-88
2023/01/15 02:40:25;;;;;;;0.60;0.60;;;7.10;99.90;;;;;;5020024;27;20060;-89
2023/01/15 02:42:53;;;;;;;0.60;0.60;;;7.10;99.90;;;;;;5027608;27;20531;-88
2023/01/15 02:45:35;;;;;;;0.60;0.60;;;7.10;99.90;;;;;;5034760;27;20592;-87
2023/01/15 02:48:25;;;;;;;0.60;0.60;;;7.10;99.90;;;;;;5018544;27;20062;-87
2023/01/15 02:51:05;;;;;;;0.60;0.60;;;7.10;99.90;;;;;;5035221;27;20406;-88
2023/01/15 02:53:32;;;;;;;0.60;0.60;;;7.10;99.90;;;;;;5030098;27;20129;-90
2023/01/15 02:56:03;;;;;;;0.60;0.60;;;7.10;99.90;;;;;;5020474;27;20124;-88
2023/01/15 02:58:36;;;;;;;0.60;0.60;;;7.10;99.90;;;;;;5034783;27;20267;-89
2023/01/15 03:01:08;;;;;;;0.60;0.60;;;7.10;99.90;;;;;;5043043;27;20785;-88
2023/01/15 03:03:41;;;;;;;0.60;0.60;;;7.10;99.90;;;;;;5025789;27;20092;-87
2023/01/15 03:06:57;;;;;;;0.70;0.70;;;7.10;99.90;;;;;;5027184;27;20121;-89
2023/01/15 03:09:23;;;;;;;0.60;0.60;;;7.10;99.90;;;;;;5024152;27;20437;-88
2023/01/15 03:12:08;;;;;;;0.60;0.60;;;7.10;99.90;;;;;;5026811;27;20039;-87
2023/01/15 03:15:06;;;;;;;0.60;0.60;;;7.00;99.90;;;;;;5034054;27;20039;-87
2023/01/15 03:17:54;;;;;;;0.60;0.60;;;7.10;99.90;;;;;;5036575;27;20043;-86
2023/01/15 03:20:25;;;;;;;0.60;0.60;;;7.10;99.90;;;;;;5028456;27;20118;-88
2023/01/15 03:22:59;;;;;;;0.60;0.60;;;7.00;99.90;;;;;;5022355;27;20476;-88
2023/01/15 03:25:34;;;;;;;0.60;0.60;;;7.00;99.90;;;;;;5050172;27;20079;-87
2023/01/15 03:28:03;;;;;;;0.60;0.60;;;7.00;99.90;;;;;;5030879;27;20082;-88
2023/01/15 03:30:29;;;;;;;0.60;0.60;;;7.00;99.90;;;;;;5028573;27;20043;-87
2023/01/15 03:32:56;;;;;;;0.60;0.60;;;7.00;99.90;;;;;;5030128;27;20042;-88
2023/01/15 03:35:46;;;;;;;0.60;0.60;;;7.00;99.90;;;;;;5008113;27;20062;-88
2023/01/15 03:38:15;;;;;;;0.60;0.60;;;7.00;99.90;;;;;;5036306;27;20338;-87
2023/01/15 03:40:54;;;;;;;0.60;0.60;;;7.00;99.90;;;;;;5038951;27;20055;-86
2023/01/15 03:43:47;;;;;;;0.60;0.60;;;7.00;99.90;;;;;;5043325;27;20093;-88
2023/01/15 03:46:25;;;;;;;0.60;0.60;;;7.00;99.90;;;;;;5038849;27;20560;-88
2023/01/15 03:49:18;;;;;;;0.60;0.60;;;7.00;99.90;;;;;;5019946;27;20848;-87
2023/01/15 03:52:15;;;;;;;0.60;0.60;;;7.00;99.90;;;;;;5032399;27;20070;-88
2023/01/15 03:54:48;;;;;;;0.60;0.60;;;7.10;99.90;;;;;;5041811;27;20051;-87
2023/01/15 03:57:29;;;;;;;0.65;0.65;;;7.00;99.90;;;;;;5025185;27;20846;-86
2023/01/15 04:00:00;;;;;;;0.60;0.60;;;7.00;99.90;;;;;;5019573;27;20066;-88
2023/01/15 04:02:29;;;;;;;0.60;0.60;;;7.00;99.90;;;;;;5021776;27;20043;-87
2023/01/15 04:04:56;;;;;;;0.60;0.60;;;6.90;99.90;;;;;;5031011;27;20544;-87
2023/01/15 04:07:23;;;;;;;0.60;0.60;;;6.90;99.90;;;;;;5040387;27;20125;-87
2023/01/15 04:09:49;;;;;;;0.60;0.60;;;6.90;99.90;;;;;;5017927;27;20118;-88
2023/01/15 04:12:18;;;;;;;0.60;0.60;;;6.90;99.90;;;;;;5007621;27;20116;-87
2023/01/15 04:14:44;;;;;;;0.60;0.60;;;6.90;99.90;;;;;;5009153;27;20461;-89
2023/01/15 04:17:10;;;;;;;0.70;0.70;;;6.90;99.90;;;;;;5022752;27;20947;-87
2023/01/15 04:19:36;;;;;;;0.60;0.60;;;6.90;99.90;;;;;;4992785;27;20046;-87
2023/01/15 04:22:04;;;;;;;0.60;0.60;;;6.80;99.90;;;;;;5007213;27;20078;-89
2023/01/15 04:24:30;;;;;;;0.60;0.60;;;6.80;99.90;;;;;;5033116;27;20043;-87
2023/01/15 04:26:55;;;;;;;0.60;0.60;;;6.80;99.90;;;;;;5039200;27;20409;-87
2023/01/15 04:29:25;;;;;;;0.60;0.60;;;6.80;99.90;;;;;;5026379;27;20051;-89
2023/01/15 04:31:56;;;;;;;0.70;0.70;;;6.80;99.90;;;;;;5015328;27;20047;-86
2023/01/15 04:34:23;;;;;;;0.60;0.60;;;6.70;99.90;;;;;;5006200;27;20615;-88
2023/01/15 04:36:49;;;;;;;0.70;0.70;;;6.70;99.90;;;;;;5044286;27;20452;-88
2023/01/15 04:39:14;;;;;;;0.70;0.70;;;6.70;99.90;;;;;;5038821;27;20726;-88
2023/01/15 04:44:28;;;;;;;0.60;0.60;;;6.80;99.90;;;;;;5041408;27;21070;-87
2023/01/15 04:46:56;;;;;;;0.60;0.60;;;6.80;99.90;;;;;;5026111;27;20551;-87
2023/01/15 04:49:22;;;;;;;0.60;0.60;;;6.80;99.90;;;;;;5041502;27;20076;-87
2023/01/15 04:51:48;;;;;;;0.68;0.68;;;6.80;99.90;;;;;;5036010;27;20044;-88
2023/01/15 04:54:15;;;;;;;0.60;0.60;;;6.70;99.90;;;;;;5011727;27;20100;-87
2023/01/15 04:56:46;;;;;;;0.63;0.63;;;6.70;99.90;;;;;;5020156;27;20100;-85
2023/01/15 04:59:12;;;;;;;0.60;0.60;;;6.70;99.90;;;;;;5035427;27;20040;-87
2023/01/15 05:01:38;;;;;;;0.60;0.60;;;6.60;99.90;;;;;;5020767;27;20293;-90
2023/01/15 05:04:04;;;;;;;0.60;0.60;;;6.60;99.90;;;;;;5004575;27;20048;-87
2023/01/15 05:06:30;;;;;;;0.63;0.63;;;6.60;99.90;;;;;;5025760;27;20887;-88
2023/01/15 05:08:57;;;;;;;0.70;0.70;;;6.60;99.90;;;;;;5012422;27;20051;-88
2023/01/15 05:11:22;;;;;;;0.70;0.70;;;6.60;99.90;;;;;;5041124;27;20554;-88
2023/01/15 05:13:48;;;;;;;0.60;0.60;;;6.60;99.90;;;;;;5024564;27;20036;-88
2023/01/15 05:16:20;;;;;;;0.63;0.63;;;6.60;99.90;;;;;;5041438;27;20043;-88
2023/01/15 05:18:47;;;;;;;0.60;0.60;;;6.60;99.90;;;;;;5018004;27;20904;-87
2023/01/15 05:21:24;;;;;;;0.70;0.70;;;6.70;99.90;;;;;;5043796;27;20342;-88
2023/01/15 05:23:53;;;;;;;0.65;0.65;;;6.60;99.90;;;;;;5028314;27;20745;-87
2023/01/15 05:26:20;;;;;;;0.70;0.70;;;6.50;99.90;;;;;;5014587;27;20444;-88
2023/01/15 05:28:47;;;;;;;0.70;0.70;;;6.60;99.90;;;;;;5031974;27;20123;-87
2023/01/15 05:31:18;;;;;;;0.60;0.60;;;6.60;99.90;;;;;;5023808;27;20079;-91
2023/01/15 05:33:46;;;;;;;0.60;0.60;;;6.60;99.90;;;;;;5029335;27;20445;-87
2023/01/15 05:36:15;;;;;;;0.63;0.63;;;6.50;99.90;;;;;;5032067;27;20047;-88
2023/01/15 05:38:41;;;;;;;0.68;0.68;;;6.60;99.90;;;;;;5018913;27;20776;-87
2023/01/15 05:43:58;;;;;;;0.70;0.70;;;6.50;99.90;;;;;;5038742;27;20812;-88
2023/01/15 05:46:24;;;;;;;0.70;0.70;;;6.50;99.90;;;;;;5034939;27;20104;-88
2023/01/15 05:48:49;;;;;;;0.70;0.70;;;6.40;99.90;;;;;;5012708;27;20066;-87
2023/01/15 05:51:15;;;;;;;0.63;0.63;;;6.40;99.90;;;;;;5002103;27;20040;-87
2023/01/15 05:53:41;;;;;;;0.70;0.70;;;6.50;99.90;;;;;;5014434;28;20051;-86
2023/01/15 05:56:07;;;;;;;0.70;0.70;;;6.50;99.90;;;;;;5020947;27;20893;-88
2023/01/15 05:58:38;;;;;;;0.60;0.60;;;6.50;99.90;;;;;;5026779;27;20036;-88
2023/01/15 06:01:09;;;;;;;0.70;0.70;;;6.50;99.90;;;;;;5029094;27;20066;-88
2023/01/15 06:03:36;;;;;;;0.60;0.60;;;6.50;99.90;;;;;;5036933;27;20150;-86
2023/01/15 06:06:03;;;;;;;0.70;0.70;;;6.50;99.90;;;;;;5024769;27;20073;-89
2023/01/15 06:08:29;;;;;;;0.70;0.70;;;6.40;99.90;;;;;;5040536;27;20605;-87
2023/01/15 06:10:55;;;;;;;0.70;0.70;;;6.40;99.90;;;;;;5014570;27;20807;-87
2023/01/15 06:13:20;;;;;;;0.70;0.70;;;6.40;99.90;;;;;;5006190;27;20054;-89
2023/01/15 06:15:46;;;;;;;0.70;0.70;;;6.40;99.90;;;;;;4998878;27;20095;-88
2023/01/15 06:18:12;;;;;;;0.70;0.70;;;6.30;99.90;;;;;;5052991;27;20569;-86
2023/01/15 06:20:44;;;;;;;0.70;0.70;;;6.20;99.90;;;;;;5013545;27;20061;-86
2023/01/15 06:23:12;;;;;;;0.70;0.70;;;6.20;99.90;;;;;;5019038;27;20043;-87
2023/01/15 06:25:38;;;;;;;0.68;0.68;;;6.30;99.90;;;;;;5038136;27;20261;-87
2023/01/15 06:28:05;;;;;;;0.70;0.70;;;6.20;99.90;;;;;;5012892;27;20163;-89
2023/01/15 06:30:34;;;;;;;0.60;0.60;;;6.20;99.90;;;;;;5027274;27;20075;-87
2023/01/15 06:33:00;;;;;;;0.70;0.70;;;6.10;99.90;;;;;;5018168;27;20153;-86
2023/01/15 06:35:26;;;;;;;0.63;0.63;;;6.10;99.90;;;;;;5031438;27;20413;-87
2023/01/15 06:37:52;;;;;;;0.60;0.60;;;6.20;99.90;;;;;;5002761;27;20871;-88
2023/01/15 06:40:18;;;;;;;0.70;0.70;;;6.20;99.90;;;;;;5034660;27;20426;-88
2023/01/15 06:48:23;;;;;;;0.60;0.60;;;6.10;99.90;;;;;;5036801;27;20050;-87
2023/01/15 06:50:49;;;;;;;0.70;0.70;;;6.10;99.90;;;;;;5021926;27;20074;-87
2023/01/15 06:53:15;;;;;;;0.70;0.70;;;6.10;99.90;;;;;;5038743;27;20039;-87
2023/01/15 06:55:41;;;;;;;0.60;0.60;;;5.90;99.90;;;;;;5031309;27;20526;-90
2023/01/15 06:58:07;;;;;;;0.70;0.70;;;6.00;99.90;;;;;;5029170;27;20782;-86
2023/01/15 07:00:35;;;;;;;0.60;0.60;;;5.90;99.90;;;;;;5022976;27;20062;-87
2023/01/15 07:03:02;;;;;;;0.70;0.70;;;5.90;99.90;;;;;;5026773;27;20134;-87
2023/01/15 07:05:28;;;;;;;0.60;0.60;;;5.90;99.90;;;;;;5002386;27;20744;-87
2023/01/15 07:07:54;;;;;;;0.60;0.60;;;5.90;99.90;;;;;;4996102;27;20058;-87
2023/01/15 07:10:20;;;;;;;0.70;0.70;;;5.90;99.90;;;;;;5021021;27;20051;-87
2023/01/15 07:12:45;;;;;;;0.70;0.70;;;5.80;99.90;;;;;;5028464;27;20047;-86
2023/01/15 07:15:11;;;;;;;0.60;0.60;;;5.80;99.90;;;;;;5032030;27;20764;-87
2023/01/15 07:17:39;;;;;;;0.70;0.70;;;5.60;99.90;;;;;;5008648;27;20371;-88
2023/01/15 07:20:06;;;;;;;0.70;0.70;;;5.80;99.90;;;;;;5017598;27;20058;-87
2023/01/15 07:22:32;;;;;;;0.70;0.70;;;5.60;99.90;;;;;;4997602;27;20047;-86
2023/01/15 07:24:58;;;;;;;0.65;0.65;;;5.70;99.90;;;;;;5020118;27;20043;-88
2023/01/15 07:27:23;;;;;;;0.70;0.70;;;5.70;99.90;;;;;;5016341;27;20099;-86
2023/01/15 07:29:54;;;;;;;0.70;0.70;;;5.60;99.90;;;;;;5004515;27;20157;-87
2023/01/15 07:32:20;;;;;;;0.70;0.70;;;5.70;99.90;;;;;;5034863;27;20245;-88
2023/01/15 07:34:45;;;;;;;0.70;0.70;;;5.60;99.90;;;;;;5004271;27;20204;-87
2023/01/15 07:37:11;;;;;;;0.63;0.63;;;5.70;99.90;;;;;;5006504;27;20047;-87
2023/01/15 07:39:39;;;;;;;0.60;0.60;;;5.60;99.90;;;;;;5012482;27;20777;-86
2023/01/15 07:50:20;;;;;;;0.70;0.70;;;5.70;99.90;;;;;;5021563;27;20073;-87
2023/01/15 07:52:46;;;;;;;0.60;0.60;;;5.70;99.90;;;;;;5017407;27;20572;-86
2023/01/15 07:55:21;;;;;;;0.70;0.70;;;5.70;99.90;;;;;;5036755;27;20050;-86
2023/01/15 07:57:47;;;;;;;0.70;0.70;;;5.70;99.90;;;;;;5034229;27;20274;-87
2023/01/15 08:00:21;;;;;;;0.70;0.70;;;5.60;99.90;;;;;;5014531;27;20046;-89
2023/01/15 08:02:50;;;;;;;0.60;0.60;;;5.70;99.90;;;;;;5034878;27;20416;-86
2023/01/15 08:05:16;;;;;;;0.65;0.65;;;5.70;99.90;;;;;;5031385;27;20118;-88
2023/01/15 08:07:43;;;;;;;0.60;0.60;;;5.60;99.90;;;;;;5018839;27;20155;-87
2023/01/15 08:10:11;;;;;;;0.70;0.70;;;5.60;99.90;;;;;;5011180;27;20039;-85
2023/01/15 08:15:22;;;;;;;0.70;0.70;;;5.70;99.90;;;;;;5037148;27;20046;-89
2023/01/15 08:17:51;;;;;;;0.60;0.60;;;5.70;99.90;;;;;;5014972;27;20047;-86
2023/01/15 08:20:20;;;;;;;0.60;0.60;;;5.70;99.90;;;;;;5037089;27;20066;-87
2023/01/15 08:22:50;;;;;;;0.70;0.70;;;5.70;99.90;;;;;;5035433;27;20475;-86
2023/01/15 08:25:21;;;;;;;0.68;0.68;;;5.80;99.90;;;;;;5037238;27;20040;-88
2023/01/15 08:27:47;;;;;;;0.80;0.80;;;5.90;99.90;;;;;;5033052;28;20052;-88
2023/01/15 08:30:20;;;;;;;0.70;0.70;;;6.00;99.90;;;;;;4994526;28;20538;-85
2023/01/15 08:32:46;;;;;;;0.80;0.80;;;6.00;99.90;;;;;;5037999;28;20594;-88
2023/01/15 08:35:12;;;;;;;0.70;0.70;;;6.00;99.90;;;;;;5035983;28;20047;-87
2023/01/15 08:37:41;;;;;;;0.70;0.70;;;6.10;99.90;;;;;;5022137;28;21150;-87
2023/01/15 08:40:09;;;;;;;0.70;0.70;;;6.10;99.90;;;;;;5011865;28;20043;-88
2023/01/15 08:42:35;;;;;;;0.70;0.70;;;6.20;99.90;;;;;;5018931;28;20040;-88
2023/01/15 08:45:01;;;;;;;0.70;0.70;;;6.20;99.90;;;;;;5018373;28;20596;-88
2023/01/15 08:47:27;;;;;;;0.70;0.70;;;6.20;99.90;;;;;;5016772;28;20054;-86
2023/01/15 08:49:53;;;;;;;0.70;0.70;;;6.20;99.90;;;;;;5016227;28;20415;-86
2023/01/15 08:52:19;;;;;;;0.70;0.70;;;6.30;99.90;;;;;;5024199;28;20405;-86
2023/01/15 08:54:45;;;;;;;0.70;0.70;;;6.30;99.90;;;;;;5009469;28;20705;-87
2023/01/15 08:57:12;;;;;;;0.70;0.70;;;6.30;99.90;;;;;;5017749;28;20631;-87
2023/01/15 08:59:38;;;;;;;0.70;0.70;;;6.40;99.90;;;;;;5013864;28;20135;-85
2023/01/15 09:02:04;;;;;;;0.70;0.70;;;6.70;99.90;;;;;;5012812;28;20546;-87
2023/01/15 09:04:29;;;;;;;0.70;0.70;;;7.00;99.90;;;;;;5016114;28;20208;-87
2023/01/15 09:06:55;;;;;;;0.70;0.70;;;7.00;99.90;;;;;;5001596;28;20050;-86
2023/01/15 09:09:21;;;;;;;0.70;0.70;;;7.10;99.90;;;;;;4998511;28;20054;-87
2023/01/15 09:11:49;;;;;;;0.63;0.63;;;7.40;99.90;;;;;;5003628;27;20063;-86
2023/01/15 09:14:15;;;;;;;0.60;0.60;;;7.50;99.90;;;;;;5021379;28;20508;-86
2023/01/15 09:16:41;;;;;;;0.60;0.60;;;7.50;99.90;;;;;;5038627;27;20047;-86
2023/01/15 09:19:08;;;;;;;0.60;0.60;;;7.50;99.90;;;;;;5020312;27;20594;-85
2023/01/15 09:21:37;;;;;;;0.68;0.68;;;7.50;99.90;;;;;;5025554;27;20150;-87
2023/01/15 09:24:03;;;;;;;0.68;0.68;;;7.50;99.90;;;;;;5018339;27;20109;-85
2023/01/15 09:26:33;;;;;;;0.70;0.70;;;7.70;99.90;;;;;;5045822;27;20722;-86
2023/01/15 09:28:59;;;;;;;0.60;0.60;;;7.90;99.90;;;;;;5051120;27;20046;-87
2023/01/15 09:31:25;;;;;;;0.60;0.60;;;7.60;99.90;;;;;;5049343;27;20623;-87
2023/01/15 09:33:51;;;;;;;0.60;0.60;;;7.50;99.90;;;;;;5053205;27;20066;-88
2023/01/15 09:36:22;;;;;;;0.60;0.60;;;7.40;99.90;;;;;;5029645;27;20047;-86
2023/01/15 09:38:48;;;;;;;0.60;0.60;;;7.20;99.90;;;;;;5045368;27;20462;-87
2023/01/15 09:44:24;;;;;;;0.60;0.60;;;7.00;99.90;;;;;;5032950;27;20043;-87
2023/01/15 09:46:59;;;;;;;0.60;0.60;;;6.80;99.90;;;;;;5052540;27;20532;-86
2023/01/15 09:50:03;;;;;;;0.60;0.60;;;6.70;99.90;;;;;;5055752;27;20134;-87
2023/01/15 09:52:38;;;;;;;0.70;0.70;;;6.60;99.90;;;;;;5035541;27;20053;-89
2023/01/15 09:55:30;;;;;;;0.70;0.70;;;6.50;99.90;;;;;;5036964;27;20052;-87
2023/01/15 09:57:59;;;;;;;0.60;0.60;;;6.40;99.90;;;;;;5050287;27;21076;-88
2023/01/15 10:00:28;;;;;;;0.70;0.70;;;6.20;99.90;;;;;;5045265;27;20043;-92
2023/01/15 10:03:17;;;;;;;0.60;0.60;;;6.10;99.90;;;;;;5050992;27;20058;-92
2023/01/15 10:05:51;;;;;;;0.70;0.70;;;5.90;99.90;;;;;;5049668;27;20111;-89
2023/01/15 10:08:29;;;;;;;0.70;0.70;;;5.80;99.90;;;;;;5050174;27;20051;-89
2023/01/15 10:11:18;;;;;;;0.70;0.70;;;5.80;99.90;;;;;;5045356;27;20055;-89
2023/01/15 10:14:30;;;;;;;0.70;0.70;;;5.80;99.90;;;;;;5047142;27;20423;-88
2023/01/15 10:16:58;;;;;;;0.70;0.70;;;6.00;99.90;;;;;;4966647;28;20519;-88
2023/01/15 10:19:27;;;;;;;0.60;0.60;;;6.10;99.90;;;;;;5054014;27;20416;-93
2023/01/15 10:22:23;;;;;;;0.70;0.70;;;6.00;99.90;;;;;;5042694;27;20046;-90
2023/01/15 10:24:56;;;;;;;0.60;0.60;;;6.10;99.90;;;;;;5026947;27;20045;-90
2023/01/15 10:27:24;;;;;;;0.70;0.70;;;6.20;99.90;;;;;;5028689;27;20114;-90
2023/01/15 10:30:14;;;;;;;0.70;0.70;;;6.20;99.90;;;;;;5047556;27;20128;-88
2023/01/15 10:32:48;;;;;;;0.65;0.65;;;6.10;99.90;;;;;;5039863;27;20475;-87
2023/01/15 10:35:18;;;;;;;0.60;0.60;;;6.10;99.90;;;;;;5042350;27;20112;-88
2023/01/15 10:38:12;;;;;;;0.70;0.70;;;6.10;99.90;;;;;;5063158;27;20039;-87
2023/01/15 10:40:56;;;;;;;0.70;0.70;;;6.00;99.90;;;;;;5046133;27;20408;-91
2023/01/15 10:43:40;;;;;;;0.70;0.70;;;6.20;99.90;;;;;;5042335;27;20054;-89
2023/01/15 10:46:15;;;;;;;0.70;0.70;;;6.30;99.90;;;;;;5040466;27;20049;-87
2023/01/15 10:48:43;;;;;;;0.70;0.70;;;6.30;99.90;;;;;;5057765;27;20138;-88
2023/01/15 10:51:21;;;;;;;0.60;0.60;;;6.30;99.90;;;;;;5071113;27;20867;-87
2023/01/15 10:54:18;;;;;;;0.70;0.70;;;6.50;99.90;;;;;;5057806;27;20035;-88
2023/01/15 10:56:51;;;;;;;0.70;0.70;;;6.70;99.90;;;;;;5042207;27;20048;-88
2023/01/15 11:00:06;;;;;;;0.65;0.65;;;6.80;99.90;;;;;;5042105;27;20843;-88
2023/01/15 11:02:38;;;;;;;0.70;0.70;;;6.90;99.90;;;;;;5023191;27;20043;-88
2023/01/15 11:05:04;;;;;;;0.60;0.60;;;7.00;99.90;;;;;;5055427;27;20061;-88
2023/01/15 11:07:36;;;;;;;0.70;0.70;;;7.00;99.90;;;;;;5037177;27;20540;-87
2023/01/15 11:10:05;;;;;;;0.70;0.70;;;7.00;99.90;;;;;;5054871;27;20040;-88
2023/01/15 11:21:30;;;;;;;0.60;0.60;;;6.80;99.90;;;;;;5068138;27;20111;-88
2023/01/15 11:23:59;;;;;;;0.60;0.60;;;6.60;99.90;;;;;;5051449;27;20042;-89
2023/01/15 11:26:27;;;;;;;0.60;0.60;;;6.60;99.90;;;;;;5063484;27;20526;-90
2023/01/15 11:28:58;;;;;;;0.70;0.70;;;6.60;99.90;;;;;;5058702;27;20396;-90
2023/01/15 11:31:35;;;;;;;0.60;0.60;;;6.70;99.90;;;;;;5043763;27;20861;-91
2023/01/15 11:34:05;;;;;;;0.68;0.68;;;6.90;99.90;;;;;;5059187;27;20130;-90
2023/01/15 11:36:33;;;;;;;0.65;0.65;;;6.90;99.90;;;;;;5052101;27;20665;-87
2023/01/15 11:38:58;;;;;;;0.60;0.60;;;7.00;99.90;;;;;;5033733;27;20058;-88
2023/01/15 11:52:51;;;;;;;0.70;0.70;;;7.00;99.90;;;;;;5051909;27;20159;-87
2023/01/15 11:55:23;;;;;;;0.60;0.60;;;7.00;99.90;;;;;;5043639;27;20489;-87
2023/01/15 11:57:50;;;;;;;0.70;0.70;;;6.80;99.90;;;;;;5048093;27;20043;-85
2023/01/15 12:00:21;;;;;;;0.60;0.60;;;6.70;99.90;;;;;;5035272;27;20065;-88
2023/01/15 12:02:49;;;;;;;0.60;0.60;;;6.70;99.90;;;;;;5047147;27;20365;-85
2023/01/15 12:05:21;;;;;;;0.68;0.68;;;6.80;99.90;;;;;;5034056;27;20606;-89
2023/01/15 12:07:55;;;;;;;0.70;0.70;;;7.10;99.90;;;;;;5028436;27;20505;-86
2023/01/15 12:13:15;;;;;;;;;;;7.60;99.90;;;;;;5046656;27;20623;-87
2023/01/15 12:15:54;;;;;;;0.60;0.60;;;7.70;99.90;;;;;;5032740;28;19923;-85
2023/01/15 12:18:38;;;;;;;0.60;0.60;;;7.70;99.90;;;;;;5046564;27;21686;-89
2023/01/15 12:21:11;;;;;;;0.60;0.60;;;7.60;99.90;;;;;;5034669;27;20048;-91
2023/01/15 12:23:43;;;;;;;0.60;0.60;;;7.50;99.90;;;;;;5042835;28;20578;-86
2023/01/15 12:26:21;;;;;;;0.60;0.60;;;7.60;99.90;;;;;;5031983;28;20135;-87
2023/01/15 12:29:19;;;;;;;0.60;0.60;;;7.60;99.90;;;;;;5033092;28;20417;-88
2023/01/15 12:32:00;;;;;;;0.60;0.60;;;7.60;99.90;;;;;;5035966;28;20046;-86
2023/01/15 12:34:45;;;;;;;0.60;0.60;;;7.60;99.90;;;;;;5030231;28;20651;-86
2023/01/15 12:37:23;;;;;;;0.60;0.60;;;7.60;99.90;;;;;;5051668;28;20048;-86
2023/01/15 12:39:54;;;;;;;0.60;0.60;;;7.60;99.90;;;;;;5036668;28;20067;-88
2023/01/15 12:45:14;;;;;;;0.60;0.60;;;7.60;99.90;;;;;;5061756;27;20418;-86
2023/01/15 12:47:48;;;;;;;0.60;0.60;;;7.60;99.90;;;;;;5052698;27;20047;-88
2023/01/15 12:50:43;;;;;;;0.60;0.60;;;7.70;99.90;;;;;;5040309;27;20066;-87
2023/01/15 12:53:12;;;;;;;0.60;0.60;;;7.60;99.90;;;;;;5051330;27;20047;-87
2023/01/15 12:55:43;;;;;;;0.60;0.60;;;7.50;99.90;;;;;;5054378;27;20892;-87
2023/01/15 12:58:30;;;;;;;0.60;0.60;;;7.50;99.90;;;;;;5035590;27;20050;-89
2023/01/15 13:01:14;;;;;;;0.60;0.60;;;7.50;99.90;;;;;;5041946;27;20059;-88
2023/01/15 13:04:07;;;;;;;0.60;0.60;;;7.50;99.90;;;;;;5033664;27;20124;-91
2023/01/15 13:06:34;;;;;;;0.60;0.60;;;7.60;99.90;;;;;;5057611;27;20039;-87
2023/01/15 13:09:29;;;;;;;0.60;0.60;;;7.90;99.90;;;;;;5041808;27;20853;-87
2023/01/15 13:11:56;;;;;;;0.60;0.60;;;8.00;99.90;;;;;;5059181;27;20039;-86
2023/01/15 13:14:23;;;;;;;0.60;0.60;;;8.30;99.90;;;;;;5038839;27;20116;-86
2023/01/15 13:16:58;;;;;;;0.60;0.60;;;8.30;99.90;;;;;;5058665;27;20050;-86
2023/01/15 13:20:03;;;;;;;0.60;0.60;;;8.20;99.90;;;;;;5034747;28;20050;-87
2023/01/15 13:22:31;;;;;;;0.60;0.60;;;8.00;99.90;;;;;;5036948;27;20071;-86
2023/01/15 13:25:04;;;;;;;0.60;0.60;;;7.90;99.90;;;;;;5037470;27;20972;-88
2023/01/15 13:27:36;;;;;;;0.60;0.60;;;7.80;99.90;;;;;;5043805;27;20817;-88
2023/01/15 13:30:31;;;;;;;0.60;0.60;;;7.70;99.90;;;;;;5038148;27;20050;-85
2023/01/15 13:33:19;;;;;;;0.60;0.60;;;7.30;99.90;;;;;;5053001;27;20066;-89
2023/01/15 13:35:53;;;;;;;0.60;0.60;;;7.20;99.90;;;;;;5049381;27;20042;-87
2023/01/15 13:38:23;;;;;;;0.60;0.60;;;7.10;99.90;;;;;;5044498;27;20042;-89
2023/01/15 13:40:53;;;;;;;0.60;0.60;;;7.20;99.90;;;;;;5060464;27;20122;-86
2023/01/15 13:43:39;;;;;;;0.60;0.60;;;7.20;99.90;;;;;;5048020;27;20047;-87
2023/01/15 13:46:10;;;;;;;0.60;0.60;;;7.30;99.90;;;;;;5063734;27;20479;-89
2023/01/15 13:48:47;;;;;;;0.60;0.60;;;7.40;99.90;;;;;;5064605;27;20043;-86
2023/01/15 13:51:38;;;;;;;0.60;0.60;;;7.50;99.90;;;;;;5055239;27;20204;-87
2023/01/15 13:54:11;;;;;;;0.60;0.60;;;7.30;99.90;;;;;;5069416;27;20043;-89
2023/01/15 13:56:38;;;;;;;;;;;7.40;99.90;;;;;;5059639;27;20837;-89
2023/01/15 13:59:25;;;;;;;0.70;0.70;;;7.40;99.90;;;;;;5049972;27;19930;-84
2023/01/15 14:01:51;;;;;;;0.60;0.60;;;7.30;99.90;;;;;;5055882;27;20101;-86
2023/01/15 14:04:16;;;;;;;0.70;0.70;;;7.20;99.90;;;;;;5057005;27;20444;-88
2023/01/15 14:06:48;;;;;;;0.60;0.60;;;7.20;99.90;;;;;;5027755;27;20059;-84
2023/01/15 14:09:14;;;;;;;0.60;0.60;;;7.10;99.90;;;;;;5044033;27;20643;-86
2023/01/15 14:12:05;;;;;;;0.70;0.70;;;7.10;99.90;;;;;;5041355;27;20522;-87
2023/01/15 14:14:55;;;;;;;0.60;0.60;;;7.00;99.90;;;;;;5049884;27;20455;-86
2023/01/15 14:17:29;;;;;;;0.60;0.60;;;7.00;99.90;;;;;;5048339;27;20038;-86
2023/01/15 14:20:18;;;;;;;0.60;0.60;;;7.00;99.90;;;;;;5045078;27;20046;-85